createdAt,value
2023-07-24T00:02:17.709Z,100466.63
2023-07-24T00:07:21.620Z,100450.75
2023-07-24T00:12:27.442Z,100462.22
2023-07-24T00:17:36.822Z,100447.16
2023-07-24T00:22:42.452Z,100432.94
2023-07-24T00:27:50.909Z,100422.31
2023-07-24T00:32:54.909Z,100416.13
2023-07-24T00:38:03.183Z,100417.91
2023-07-24T00:43:08.265Z,100371.03
2023-07-24T00:48:12.275Z,100407.25
2023-07-24T00:53:17.198Z,100396.66
2023-07-24T00:58:22.196Z,100404.66
2023-07-24T01:03:33.868Z,100408.16
2023-07-24T01:08:37.011Z,100392.22
2023-07-24T01:13:47.350Z,100382.50
2023-07-24T01:18:53.514Z,100390.50
2023-07-24T01:24:05.464Z,100387.84
2023-07-24T01:29:09.894Z,100390.47
2023-07-24T01:34:12.933Z,100379.88
2023-07-24T01:39:17.429Z,100371.91
2023-07-24T01:44:21.917Z,100370.13
2023-07-24T01:49:25.229Z,100371.03
2023-07-24T01:54:28.650Z,100365.75
2023-07-24T01:59:33.043Z,100355.97
2023-07-24T02:04:36.223Z,100353.31
2023-07-24T02:09:40.408Z,100343.56
2023-07-24T02:14:44.902Z,100337.38
2023-07-24T02:19:48.223Z,100323.22
2023-07-24T02:24:51.326Z,100333.88
2023-07-24T02:29:56.238Z,100327.66
2023-07-24T02:34:59.366Z,100306.41
2023-07-24T02:40:02.387Z,100309.09
2023-07-24T02:45:12.019Z,100315.31
2023-07-24T02:50:15.431Z,100324.19
2023-07-24T02:55:18.542Z,100320.59
2023-07-24T03:00:23.093Z,100312.63
2023-07-24T03:05:26.341Z,100297.56
2023-07-24T03:10:29.789Z,100309.06
2023-07-24T03:15:34.475Z,100325.03
2023-07-24T03:20:37.564Z,100317.09
2023-07-24T03:25:40.942Z,100314.44
2023-07-24T03:30:45.502Z,100304.72
2023-07-24T03:35:49.411Z,100305.66
2023-07-24T03:40:52.401Z,100297.78
2023-07-24T03:45:56.867Z,100289.84
2023-07-24T03:51:01.257Z,100283.66
2023-07-24T03:56:04.424Z,100281.84
2023-07-24T04:01:09.074Z,100280.97
2023-07-24T04:06:12.379Z,100283.63
2023-07-24T04:11:15.478Z,100280.94
2023-07-24T04:16:20.305Z,100284.47
2023-07-24T04:21:24.696Z,100291.53
2023-07-24T04:26:28.048Z,100294.19
2023-07-24T04:31:32.624Z,100302.19
2023-07-24T04:36:35.673Z,100287.16
2023-07-24T04:41:38.925Z,100296.88
2023-07-24T04:46:43.629Z,100303.97
2023-07-24T04:51:46.832Z,100299.53
2023-07-24T04:56:49.868Z,100296.94
2023-07-24T05:01:54.399Z,100313.72
2023-07-24T05:06:57.930Z,100317.25
2023-07-24T05:12:01.129Z,100313.69
2023-07-24T05:17:06.281Z,100315.41
2023-07-24T05:22:11.375Z,100319.00
2023-07-24T05:27:16.998Z,100312.75
2023-07-24T05:32:21.605Z,100326.91
2023-07-24T05:37:24.689Z,100316.25
2023-07-24T05:42:27.825Z,100311.81
2023-07-24T05:47:32.373Z,100313.50
2023-07-24T05:52:35.500Z,100316.16
2023-07-24T05:57:38.973Z,100309.88
2023-07-24T06:02:43.447Z,100300.19
2023-07-24T06:07:46.632Z,100317.94
2023-07-24T06:12:49.779Z,100307.28
2023-07-24T06:17:54.896Z,100333.75
2023-07-24T06:22:58.243Z,100323.94
2023-07-24T06:28:01.531Z,100333.63
2023-07-24T06:33:06.191Z,100348.75
2023-07-24T06:38:09.982Z,100342.44
2023-07-24T06:43:13.163Z,100337.94
2023-07-24T06:48:17.592Z,100343.03
2023-07-24T06:53:20.649Z,100342.00
2023-07-24T06:58:23.869Z,100329.50
2023-07-24T07:03:28.426Z,100347.69
2023-07-24T07:08:32.302Z,100346.28
2023-07-24T07:13:35.396Z,100337.44
2023-07-24T07:18:42.199Z,100347.19
2023-07-24T07:23:47.309Z,100338.38
2023-07-24T07:28:50.697Z,100331.19
2023-07-24T07:33:55.142Z,100331.81
2023-07-24T07:38:58.396Z,100333.28
2023-07-24T07:44:01.489Z,100337.56
2023-07-24T07:49:06.202Z,100339.16
2023-07-24T07:54:09.309Z,100336.50
2023-07-24T07:59:12.377Z,100339.91
2023-07-24T08:04:18.598Z,100339.94
2023-07-24T08:09:22.709Z,100338.38
2023-07-24T08:14:25.908Z,100321.34
2023-07-24T08:19:31.890Z,100327.16
2023-07-24T08:24:36.708Z,100324.56
2023-07-24T08:29:39.957Z,100337.13
2023-07-24T08:34:44.393Z,100339.00
2023-07-24T08:39:47.666Z,100332.56
2023-07-24T08:44:51.253Z,100333.31
2023-07-24T08:49:56.869Z,100331.66
2023-07-24T08:55:02.402Z,100319.38
2023-07-24T09:00:06.468Z,100314.03
2023-07-24T09:05:12.798Z,100302.47
2023-07-24T09:10:16.936Z,100297.97
2023-07-24T09:15:20.298Z,100285.31
2023-07-24T09:25:34.964Z,100276.63
2023-07-24T09:30:39.341Z,100272.47
2023-07-24T09:35:43.755Z,100269.06
2023-07-24T09:40:48.533Z,100266.09
2023-07-24T09:45:52.708Z,100281.63
2023-07-24T09:50:58.409Z,100298.81
2023-07-24T09:56:04.365Z,100297.03
2023-07-24T10:01:08.936Z,100288.28
2023-07-24T10:06:15.971Z,100293.44
2023-07-24T10:11:19.710Z,100289.78
2023-07-24T10:16:23.042Z,100291.41
2023-07-24T10:21:30.627Z,100254.31
2023-07-24T10:26:37.199Z,100252.63
2023-07-24T10:31:40.568Z,100251.47
2023-07-24T10:36:45.087Z,100252.66
2023-07-24T10:41:48.271Z,100244.06
2023-07-24T10:46:51.356Z,100261.72
2023-07-24T10:51:59.016Z,100269.78
2023-07-24T10:57:02.586Z,100271.63
2023-07-24T11:02:06.546Z,100283.50
2023-07-24T11:07:11.074Z,100295.41
2023-07-24T11:12:18.900Z,100287.25
2023-07-24T11:17:22.207Z,100291.88
2023-07-24T11:22:28.259Z,100317.56
2023-07-24T11:27:31.286Z,100306.44
2023-07-24T11:32:34.379Z,100303.81
2023-07-24T11:37:38.976Z,100304.50
2023-07-24T11:42:44.794Z,100310.66
2023-07-24T11:47:49.623Z,100317.81
2023-07-24T11:52:55.070Z,100310.38
2023-07-24T11:57:58.962Z,100293.34
2023-07-24T12:03:05.928Z,100301.50
2023-07-24T12:08:10.908Z,100295.06
2023-07-24T12:13:14.710Z,100293.63
2023-07-24T12:18:17.949Z,100280.19
2023-07-24T12:23:22.349Z,100290.78
2023-07-24T12:28:25.476Z,100287.00
2023-07-24T12:33:28.495Z,100285.94
2023-07-24T12:38:33.079Z,100263.47
2023-07-24T12:43:36.098Z,100267.47
2023-07-24T12:48:39.187Z,100268.50
2023-07-24T12:53:48.597Z,100273.25
2023-07-24T12:59:07.629Z,100283.19
2023-07-24T13:04:10.728Z,100271.78
2023-07-24T13:09:15.365Z,100258.53
2023-07-24T13:14:18.581Z,100259.41
2023-07-24T13:19:21.879Z,100264.47
2023-07-24T13:24:26.459Z,100278.69
2023-07-24T13:29:29.543Z,100264.41
2023-07-24T13:34:32.637Z,100256.47
2023-07-24T13:39:37.882Z,100238.63
2023-07-24T13:44:40.896Z,100246.22
2023-07-24T13:49:44.029Z,100259.84
2023-07-24T13:54:48.459Z,100261.00
2023-07-24T13:59:51.648Z,100271.13
2023-07-24T14:04:55.643Z,100262.34
2023-07-24T14:10:00.484Z,100263.16
2023-07-24T14:15:03.786Z,100283.41
2023-07-24T14:20:08.076Z,100291.38
2023-07-24T14:25:12.544Z,100291.84
2023-07-24T14:30:15.830Z,100294.03
2023-07-24T14:35:20.786Z,100311.31
2023-07-24T14:40:25.271Z,100316.84
2023-07-24T14:45:28.617Z,100317.13
2023-07-24T14:50:31.756Z,100320.34
2023-07-24T14:55:36.439Z,100307.63
2023-07-24T15:00:39.687Z,100291.66
2023-07-24T15:05:42.884Z,100308.06
2023-07-24T15:10:47.440Z,100322.19
2023-07-24T15:15:50.754Z,100330.81
2023-07-24T15:20:54.789Z,100315.06
2023-07-24T15:25:59.349Z,100331.47
2023-07-24T15:31:02.569Z,100342.09
2023-07-24T15:36:06.219Z,100345.50
2023-07-24T15:41:10.711Z,100346.91
2023-07-24T15:46:16.765Z,100344.53
2023-07-24T15:51:21.372Z,100365.94
2023-07-24T15:56:26.424Z,100377.47
2023-07-24T16:01:30.091Z,100383.44
2023-07-24T16:06:33.812Z,100396.09
2023-07-24T16:11:38.309Z,100395.28
2023-07-24T16:16:41.601Z,100409.66
2023-07-24T16:21:46.880Z,100430.75
2023-07-24T16:26:51.554Z,100440.19
2023-07-24T16:31:54.971Z,100432.53
2023-07-24T16:36:58.106Z,100438.75
2023-07-24T16:42:02.485Z,100429.06
2023-07-24T16:52:11.980Z,100464.31
2023-07-24T16:57:16.590Z,100461.75
2023-07-24T17:02:19.741Z,100449.19
2023-07-24T17:07:22.932Z,100466.28
2023-07-24T17:12:27.480Z,100480.47
2023-07-24T17:17:31.543Z,100491.03
2023-07-24T17:22:34.647Z,100495.13
2023-07-24T17:27:39.620Z,100487.81
2023-07-24T17:32:42.812Z,100503.16
2023-07-24T17:37:46.157Z,100508.69
2023-07-24T17:42:52.454Z,100520.03
2023-07-24T17:47:55.679Z,100529.66
2023-07-24T17:52:58.837Z,100529.81
2023-07-24T17:58:03.329Z,100531.91
2023-07-24T18:03:06.496Z,100533.81
2023-07-24T18:08:09.837Z,100547.16
2023-07-24T18:13:14.645Z,100542.78
2023-07-24T18:18:17.814Z,100555.22
2023-07-24T18:23:21.012Z,100557.03
2023-07-24T18:28:25.467Z,100558.88
2023-07-24T18:33:28.574Z,100568.66
2023-07-24T18:38:31.634Z,100567.78
2023-07-24T18:43:36.201Z,100575.81
2023-07-24T18:48:39.412Z,100584.75
2023-07-24T18:53:42.705Z,100592.75
2023-07-24T18:58:49.766Z,100599.84
2023-07-24T19:03:53.151Z,100596.31
2023-07-24T19:08:56.391Z,100603.38
2023-07-24T19:14:00.888Z,100613.13
2023-07-24T19:19:06.798Z,100620.19
2023-07-24T19:24:10.549Z,100628.09
2023-07-24T19:29:15.138Z,100639.63
2023-07-24T19:34:18.324Z,100650.28
2023-07-24T19:39:21.596Z,100644.97
2023-07-24T19:44:26.106Z,100666.19
2023-07-24T19:49:31.083Z,100665.28
2023-07-24T19:54:34.249Z,100675.84
2023-07-24T19:59:38.816Z,100683.84
2023-07-24T20:04:42.028Z,100697.97
2023-07-24T20:09:45.471Z,100704.13
2023-07-24T20:14:49.947Z,100704.94
2023-07-24T20:19:53.105Z,100699.56
2023-07-24T20:24:56.331Z,100694.16
2023-07-24T20:30:02.502Z,100703.00
2023-07-24T20:35:06.257Z,100710.13
2023-07-24T20:40:11.079Z,100716.22
2023-07-24T20:45:15.849Z,100721.50
2023-07-24T20:50:19.120Z,100727.63
2023-07-24T20:55:22.305Z,100720.50
2023-07-24T21:00:26.917Z,100728.44
2023-07-24T21:05:30.511Z,100732.81
2023-07-24T21:10:33.804Z,100728.34
2023-07-24T21:15:38.558Z,100731.78
2023-07-24T21:20:42.936Z,100731.72
2023-07-24T21:25:54.796Z,100723.72
2023-07-24T21:31:08.170Z,100719.06
2023-07-24T21:36:11.267Z,100719.06
2023-07-24T21:41:14.664Z,100716.38
2023-07-24T21:46:19.232Z,100717.13
2023-07-24T21:51:22.573Z,100723.28
2023-07-24T21:56:25.676Z,100716.16
2023-07-24T22:01:30.807Z,100719.59
2023-07-24T22:06:34.703Z,100708.78
2023-07-24T22:11:37.996Z,100715.78
2023-07-24T22:16:42.734Z,100714.72
2023-07-24T22:21:45.959Z,100715.56
2023-07-24T22:26:49.011Z,100719.97
2023-07-24T22:31:53.528Z,100719.06
2023-07-24T22:36:56.531Z,100718.13
2023-07-24T22:42:00.547Z,100724.25
2023-07-24T22:47:05.666Z,100726.00
2023-07-24T22:52:09.311Z,100726.81
2023-07-24T22:57:12.364Z,100731.16
2023-07-24T23:02:16.870Z,100731.91
2023-07-24T23:07:20.037Z,100736.25
2023-07-24T23:12:23.065Z,100740.63
2023-07-24T23:17:27.541Z,100737.81
2023-07-24T23:22:30.737Z,100747.44
2023-07-24T23:27:33.857Z,100750.06
2023-07-24T23:32:38.327Z,100744.69
2023-07-24T23:37:41.378Z,100736.63
2023-07-24T23:42:44.472Z,100735.63
2023-07-24T23:47:49.030Z,100732.13
2023-07-24T23:52:52.170Z,100741.81
2023-07-24T23:57:55.217Z,100740.00
